Impacts METAR Board
IDs:

KEYW - Key West Intl, FL, US

Updated at: 1900 UTC 02 Oct 2022
Potential Impact None Slight Moderate High
Time 02/07Z 02/08Z 02/09Z 02/10Z 02/11Z 02/12Z 02/13Z 02/14Z 02/15Z 02/16Z 02/17Z 02/18Z 02/19Z
Temp80 79 79 79 79 79 80 82 84 85 84 85 85
Dewpt69 70 71 72 72 71 71 71 71 72 71 70 70
Altim29.88 29.87 29.87 29.88 29.89 29.91 29.94 29.95 29.96 29.96 29.96 29.94 29.92
VIS10 10 10 10 10 10 10 10 10 10 10 10 10
CIG-- -- -- -- 75 -- 75 -- -- -- -- -- --
CoverCLRCLRCLRFEWOVCFEWBKNFEWCLRCLRFEWFEWFEW
FltCatVFRVFRVFRVFRVFRVFRVFRVFRVFRVFRVFRVFRVFR
WX--------------------------
WDir340340330340340330340340350350340340350
WSpd6 8 7 6 8 8 9 11 10 11 11 13 11
WGst-- -- -- -- -- 18 -- -- -- 19 -- 19 --
Raw hourly METARs
KEYW 020653Z AUTO 34006KT 10SM CLR 27/21 A2988 RMK AO2 SLP119 T02670206 PNO $
KEYW 020753Z AUTO 34008KT 10SM CLR 26/21 A2987 RMK AO2 SLP114 T02610211 PNO $
KEYW 020853Z AUTO 33007KT 10SM CLR 26/22 A2987 RMK AO2 SLP113 6//// T02610217 56010 PNO $
KEYW 020953Z AUTO 34006KT 10SM FEW070 26/22 A2988 RMK AO2 SLP117 T02610222 PNO $
KEYW 021053Z 34008KT 10SM FEW031 SCT046 OVC075 26/22 A2989 RMK AO2 SLP123 T02610222 PNO $
KEYW 021153Z 33008G18KT 10SM FEW034 FEW075 26/22 A2991 RMK AO2 SLP128 6//// 7//// T02610217 10267 20256 53015 PNO $
KEYW 021253Z 34009KT 10SM BKN075 27/22 A2994 RMK AO2 SLP136 T02670217 PNO $
KEYW 021353Z 34011KT 10SM FEW070 28/22 A2995 RMK AO2 SLP143 T02780217 PNO $
KEYW 021453Z 35010KT 10SM CLR 29/22 A2996 RMK AO2 SLP145 6//// T02890217 51017 PNO $
KEYW 021553Z 35011G19KT 10SM CLR 29/22 A2996 RMK AO2 SLP145 T02940222 PNO $
KEYW 021653Z 34011KT 10SM FEW028 29/22 A2996 RMK AO2 SLP143 T02890217 PNO $
KEYW 021753Z 34013G19KT 10SM FEW030 29/21 A2994 RMK AO2 SLP136 6//// T02940211 10294 20261 58009 PNO $
KEYW 021853Z 35011KT 10SM FEW038 29/21 A2992 RMK AO2 SLP132 T02940211 PNO $



Page loaded:  19:05 UTC  |   12:05 PM Pacific  |   01:05 PM Mountain  |   02:05 PM Central  |   03:05 PM Eastern

 

ADVISORIES

FORECASTS

FORECASTS

OBSERVATIONS

USER TOOLS

ABOUT US